sensor_id;sensor_type;location;lat;lon;timestamp;noise_LAeq;noise_LA_min;noise_LA_max;noise_LA01;noise_LA95
66399;Laerm;54877;51.504;3.894;2023-07-20T00:00:48;44.46;34.82;63.08;;
66399;Laerm;54877;51.504;3.894;2023-07-20T00:03:18;36.13;34.76;37.77;;
66399;Laerm;54877;51.504;3.894;2023-07-20T00:05:50;36.15;34.74;38.76;;
66399;Laerm;54877;51.504;3.894;2023-07-20T00:08:16;36.18;34.77;37.53;;
66399;Laerm;54877;51.504;3.894;2023-07-20T00:10:42;36.21;34.80;37.97;;
66399;Laerm;54877;51.504;3.894;2023-07-20T00:13:09;36.21;34.83;41.42;;
66399;Laerm;54877;51.504;3.894;2023-07-20T00:15:35;36.21;34.93;37.41;;
66399;Laerm;54877;51.504;3.894;2023-07-20T00:18:00;36.22;34.84;37.58;;
66399;Laerm;54877;51.504;3.894;2023-07-20T00:20:26;36.25;34.79;37.54;;
66399;Laerm;54877;51.504;3.894;2023-07-20T00:22:51;36.25;34.91;37.78;;
66399;Laerm;54877;51.504;3.894;2023-07-20T00:25:17;36.25;34.97;40.06;;
66399;Laerm;54877;51.504;3.894;2023-07-20T00:27:43;36.23;34.77;37.46;;
66399;Laerm;54877;51.504;3.894;2023-07-20T00:30:08;36.26;34.74;37.63;;
66399;Laerm;54877;51.504;3.894;2023-07-20T00:32:34;36.27;34.70;37.53;;
66399;Laerm;54877;51.504;3.894;2023-07-20T00:34:59;36.37;34.96;37.62;;
66399;Laerm;54877;51.504;3.894;2023-07-20T00:37:25;36.28;34.88;42.64;;
66399;Laerm;54877;51.504;3.894;2023-07-20T00:39:51;36.28;34.66;37.66;;
66399;Laerm;54877;51.504;3.894;2023-07-20T00:42:16;36.26;34.89;37.47;;
66399;Laerm;54877;51.504;3.894;2023-07-20T00:44:41;36.28;34.87;37.56;;
66399;Laerm;54877;51.504;3.894;2023-07-20T00:47:07;36.29;34.97;38.22;;
66399;Laerm;54877;51.504;3.894;2023-07-20T00:49:32;36.27;34.85;38.45;;
66399;Laerm;54877;51.504;3.894;2023-07-20T00:52:00;36.28;35.06;41.31;;
66399;Laerm;54877;51.504;3.894;2023-07-20T00:54:27;36.27;34.71;37.53;;
66399;Laerm;54877;51.504;3.894;2023-07-20T00:56:53;36.29;35.03;37.49;;
66399;Laerm;54877;51.504;3.894;2023-07-20T00:59:19;36.28;34.88;37.54;;
66399;Laerm;54877;51.504;3.894;2023-07-20T01:01:44;36.46;35.01;54.15;;
66399;Laerm;54877;51.504;3.894;2023-07-20T01:04:10;36.35;34.95;40.03;;
66399;Laerm;54877;51.504;3.894;2023-07-20T01:14:16;36.28;34.91;37.62;;
66399;Laerm;54877;51.504;3.894;2023-07-20T01:16:42;36.25;34.86;37.73;;
66399;Laerm;54877;51.504;3.894;2023-07-20T01:19:07;36.24;35.02;42.13;;
66399;Laerm;54877;51.504;3.894;2023-07-20T01:21:41;36.27;34.79;38.15;;
66399;Laerm;54877;51.504;3.894;2023-07-20T01:24:15;36.20;34.58;37.63;;
66399;Laerm;54877;51.504;3.894;2023-07-20T01:33:01;36.15;34.78;37.41;;
66399;Laerm;54877;51.504;3.894;2023-07-20T01:35:29;36.14;34.75;37.60;;
66399;Laerm;54877;51.504;3.894;2023-07-20T01:37:56;36.12;34.77;37.51;;
66399;Laerm;54877;51.504;3.894;2023-07-20T01:40:23;36.12;34.55;37.27;;
66399;Laerm;54877;51.504;3.894;2023-07-20T01:42:50;36.12;34.64;37.38;;
66399;Laerm;54877;51.504;3.894;2023-07-20T01:45:17;36.10;34.58;37.40;;
66399;Laerm;54877;51.504;3.894;2023-07-20T01:47:42;36.11;34.72;37.41;;
66399;Laerm;54877;51.504;3.894;2023-07-20T01:50:08;36.10;34.65;37.67;;
66399;Laerm;54877;51.504;3.894;2023-07-20T01:52:34;36.11;34.58;37.49;;
66399;Laerm;54877;51.504;3.894;2023-07-20T01:54:59;36.12;34.58;37.49;;
66399;Laerm;54877;51.504;3.894;2023-07-20T01:57:24;36.13;34.53;37.57;;
66399;Laerm;54877;51.504;3.894;2023-07-20T01:59:50;36.13;34.65;37.36;;
66399;Laerm;54877;51.504;3.894;2023-07-20T02:02:15;36.19;34.61;37.67;;
66399;Laerm;54877;51.504;3.894;2023-07-20T02:04:40;36.14;34.72;38.63;;
66399;Laerm;54877;51.504;3.894;2023-07-20T02:07:06;36.11;34.78;37.61;;
66399;Laerm;54877;51.504;3.894;2023-07-20T02:09:31;36.14;34.89;38.70;;
66399;Laerm;54877;51.504;3.894;2023-07-20T02:11:56;36.12;34.76;37.26;;
66399;Laerm;54877;51.504;3.894;2023-07-20T02:14:22;36.13;34.55;37.31;;
66399;Laerm;54877;51.504;3.894;2023-07-20T02:16:48;36.16;34.80;37.54;;
66399;Laerm;54877;51.504;3.894;2023-07-20T02:19:18;36.16;34.73;37.55;;
66399;Laerm;54877;51.504;3.894;2023-07-20T02:21:44;36.16;34.74;37.36;;
66399;Laerm;54877;51.504;3.894;2023-07-20T02:24:09;36.18;34.80;37.47;;
66399;Laerm;54877;51.504;3.894;2023-07-20T02:26:35;46.53;34.84;67.04;;
66399;Laerm;54877;51.504;3.894;2023-07-20T02:29:00;36.15;34.76;37.54;;
66399;Laerm;54877;51.504;3.894;2023-07-20T02:31:25;36.18;34.95;38.14;;
66399;Laerm;54877;51.504;3.894;2023-07-20T02:33:51;36.18;34.80;37.53;;
66399;Laerm;54877;51.504;3.894;2023-07-20T02:36:16;36.26;34.48;46.47;;
66399;Laerm;54877;51.504;3.894;2023-07-20T02:38:42;36.24;34.67;38.79;;
66399;Laerm;54877;51.504;3.894;2023-07-20T02:41:07;36.31;34.64;40.35;;
66399;Laerm;54877;51.504;3.894;2023-07-20T02:43:32;36.20;34.83;37.47;;
66399;Laerm;54877;51.504;3.894;2023-07-20T02:45:58;36.26;34.74;45.80;;
66399;Laerm;54877;51.504;3.894;2023-07-20T02:48:23;36.18;34.85;37.60;;
66399;Laerm;54877;51.504;3.894;2023-07-20T02:50:49;36.23;34.55;47.96;;
66399;Laerm;54877;51.504;3.894;2023-07-20T02:53:14;36.28;34.82;46.37;;
66399;Laerm;54877;51.504;3.894;2023-07-20T02:55:39;36.20;34.78;38.69;;
66399;Laerm;54877;51.504;3.894;2023-07-20T02:58:05;36.18;34.91;37.61;;
66399;Laerm;54877;51.504;3.894;2023-07-20T03:00:30;36.22;34.96;40.39;;
66399;Laerm;54877;51.504;3.894;2023-07-20T03:02:55;36.25;34.83;37.64;;
66399;Laerm;54877;51.504;3.894;2023-07-20T03:05:22;36.25;34.72;38.08;;
66399;Laerm;54877;51.504;3.894;2023-07-20T03:07:50;36.24;34.93;37.60;;
66399;Laerm;54877;51.504;3.894;2023-07-20T03:10:16;36.52;34.82;47.55;;
66399;Laerm;54877;51.504;3.894;2023-07-20T03:12:41;36.24;34.76;37.60;;
66399;Laerm;54877;51.504;3.894;2023-07-20T03:15:07;36.24;34.90;37.42;;
66399;Laerm;54877;51.504;3.894;2023-07-20T03:17:32;36.24;35.03;38.13;;
66399;Laerm;54877;51.504;3.894;2023-07-20T03:19:59;36.24;34.74;38.12;;
66399;Laerm;54877;51.504;3.894;2023-07-20T03:22:26;36.24;34.76;37.51;;
66399;Laerm;54877;51.504;3.894;2023-07-20T03:24:51;36.37;34.82;47.68;;
66399;Laerm;54877;51.504;3.894;2023-07-20T03:27:17;36.27;34.90;43.18;;
66399;Laerm;54877;51.504;3.894;2023-07-20T03:29:43;36.64;34.86;42.88;;
66399;Laerm;54877;51.504;3.894;2023-07-20T03:32:09;37.55;34.96;44.90;;
66399;Laerm;54877;51.504;3.894;2023-07-20T03:34:35;36.76;35.07;43.88;;
66399;Laerm;54877;51.504;3.894;2023-07-20T03:37:00;36.41;34.86;43.18;;
66399;Laerm;54877;51.504;3.894;2023-07-20T03:39:26;36.57;34.99;43.63;;
66399;Laerm;54877;51.504;3.894;2023-07-20T03:41:52;42.48;34.95;60.39;;
66399;Laerm;54877;51.504;3.894;2023-07-20T03:44:17;38.04;35.03;49.78;;
66399;Laerm;54877;51.504;3.894;2023-07-20T03:46:43;36.84;34.94;49.57;;
66399;Laerm;54877;51.504;3.894;2023-07-20T03:49:08;36.31;34.71;39.52;;
66399;Laerm;54877;51.504;3.894;2023-07-20T03:51:35;36.33;34.95;39.62;;
66399;Laerm;54877;51.504;3.894;2023-07-20T03:54:00;36.54;35.13;39.27;;
66399;Laerm;54877;51.504;3.894;2023-07-20T03:56:26;36.26;34.88;39.75;;
66399;Laerm;54877;51.504;3.894;2023-07-20T03:58:51;36.44;34.84;42.02;;
66399;Laerm;54877;51.504;3.894;2023-07-20T04:01:17;36.45;34.85;50.11;;
66399;Laerm;54877;51.504;3.894;2023-07-20T04:03:42;45.82;34.55;65.80;;
66399;Laerm;54877;51.504;3.894;2023-07-20T04:06:08;36.60;34.89;49.21;;
66399;Laerm;54877;51.504;3.894;2023-07-20T04:08:33;36.22;34.88;39.53;;
66399;Laerm;54877;51.504;3.894;2023-07-20T04:11:01;36.72;34.85;52.73;;
66399;Laerm;54877;51.504;3.894;2023-07-20T04:13:27;36.46;34.90;43.54;;
66399;Laerm;54877;51.504;3.894;2023-07-20T04:15:53;36.34;34.53;42.58;;
66399;Laerm;54877;51.504;3.894;2023-07-20T04:18:18;36.30;34.78;41.10;;
66399;Laerm;54877;51.504;3.894;2023-07-20T04:20:43;36.32;34.86;40.57;;
66399;Laerm;54877;51.504;3.894;2023-07-20T04:23:09;36.25;34.83;40.98;;
66399;Laerm;54877;51.504;3.894;2023-07-20T04:25:34;43.70;34.97;61.54;;
66399;Laerm;54877;51.504;3.894;2023-07-20T04:28:05;45.99;35.10;66.66;;
66399;Laerm;54877;51.504;3.894;2023-07-20T04:30:34;36.29;34.86;45.06;;
66399;Laerm;54877;51.504;3.894;2023-07-20T04:32:59;36.70;34.74;53.14;;
66399;Laerm;54877;51.504;3.894;2023-07-20T04:35:51;36.26;34.63;45.77;;
66399;Laerm;54877;51.504;3.894;2023-07-20T04:38:17;36.16;34.78;39.47;;
66399;Laerm;54877;51.504;3.894;2023-07-20T04:40:47;36.27;34.78;44.12;;
66399;Laerm;54877;51.504;3.894;2023-07-20T04:43:13;36.99;34.83;44.18;;
66399;Laerm;54877;51.504;3.894;2023-07-20T04:45:39;36.13;34.85;37.55;;
66399;Laerm;54877;51.504;3.894;2023-07-20T04:48:15;36.12;34.72;37.66;;
66399;Laerm;54877;51.504;3.894;2023-07-20T04:50:41;36.19;34.80;39.88;;
66399;Laerm;54877;51.504;3.894;2023-07-20T04:53:08;36.25;34.53;41.18;;
66399;Laerm;54877;51.504;3.894;2023-07-20T04:55:35;36.56;34.85;46.49;;
66399;Laerm;54877;51.504;3.894;2023-07-20T04:58:02;36.18;34.29;47.22;;
66399;Laerm;54877;51.504;3.894;2023-07-20T05:00:37;42.42;34.72;60.82;;
66399;Laerm;54877;51.504;3.894;2023-07-20T05:03:03;39.55;34.93;48.91;;
66399;Laerm;54877;51.504;3.894;2023-07-20T05:05:30;37.12;34.46;47.07;;
66399;Laerm;54877;51.504;3.894;2023-07-20T05:07:56;37.85;34.40;51.06;;
66399;Laerm;54877;51.504;3.894;2023-07-20T05:10:21;47.16;34.20;66.85;;
66399;Laerm;54877;51.504;3.894;2023-07-20T05:12:46;36.38;34.36;46.20;;
66399;Laerm;54877;51.504;3.894;2023-07-20T05:15:12;36.31;34.54;46.26;;
66399;Laerm;54877;51.504;3.894;2023-07-20T05:17:37;43.27;34.78;58.93;;
66399;Laerm;54877;51.504;3.894;2023-07-20T05:20:04;48.24;34.75;67.82;;
66399;Laerm;54877;51.504;3.894;2023-07-20T05:22:30;36.00;34.17;41.35;;
66399;Laerm;54877;51.504;3.894;2023-07-20T05:24:55;46.94;34.22;65.34;;
66399;Laerm;54877;51.504;3.894;2023-07-20T05:27:20;35.65;33.79;42.71;;
66399;Laerm;54877;51.504;3.894;2023-07-20T05:29:46;35.64;33.98;42.34;;
66399;Laerm;54877;51.504;3.894;2023-07-20T05:32:12;37.88;33.56;51.65;;
66399;Laerm;54877;51.504;3.894;2023-07-20T05:34:38;36.16;33.86;55.94;;
66399;Laerm;54877;51.504;3.894;2023-07-20T05:37:03;36.32;34.06;52.55;;
66399;Laerm;54877;51.504;3.894;2023-07-20T05:39:29;48.27;34.10;68.55;;
66399;Laerm;54877;51.504;3.894;2023-07-20T05:41:54;37.48;33.66;51.42;;
66399;Laerm;54877;51.504;3.894;2023-07-20T05:44:19;36.86;34.25;46.38;;
66399;Laerm;54877;51.504;3.894;2023-07-20T09:34:35;38.08;34.27;49.84;;
66399;Laerm;54877;51.504;3.894;2023-07-20T09:37:00;50.45;34.54;71.25;;
66399;Laerm;54877;51.504;3.894;2023-07-20T09:39:26;49.43;34.71;65.34;;
66399;Laerm;54877;51.504;3.894;2023-07-20T09:41:51;45.47;34.24;60.51;;
66399;Laerm;54877;51.504;3.894;2023-07-20T09:44:17;37.83;34.40;51.68;;
66399;Laerm;54877;51.504;3.894;2023-07-20T09:46:45;51.21;34.76;68.16;;
66399;Laerm;54877;51.504;3.894;2023-07-20T09:49:11;36.89;34.42;47.95;;
66399;Laerm;54877;51.504;3.894;2023-07-20T09:51:37;39.05;34.48;62.67;;
66399;Laerm;54877;51.504;3.894;2023-07-20T09:54:03;39.59;34.37;68.97;;
66399;Laerm;54877;51.504;3.894;2023-07-20T09:56:30;49.03;34.24;69.04;;
66399;Laerm;54877;51.504;3.894;2023-07-20T09:58:56;40.28;34.22;59.71;;
66399;Laerm;54877;51.504;3.894;2023-07-20T10:01:22;49.87;34.55;78.85;;
66399;Laerm;54877;51.504;3.894;2023-07-20T10:03:51;37.80;34.36;58.94;;
66399;Laerm;54877;51.504;3.894;2023-07-20T10:06:23;49.56;34.42;68.65;;
66399;Laerm;54877;51.504;3.894;2023-07-20T10:08:52;37.83;34.33;61.00;;
66399;Laerm;54877;51.504;3.894;2023-07-20T10:11:18;37.40;34.18;53.21;;
66399;Laerm;54877;51.504;3.894;2023-07-20T10:13:50;45.87;34.35;63.84;;
66399;Laerm;54877;51.504;3.894;2023-07-20T10:16:29;48.92;34.08;69.64;;
66399;Laerm;54877;51.504;3.894;2023-07-20T10:19:05;38.84;33.93;57.29;;
66399;Laerm;54877;51.504;3.894;2023-07-20T10:21:33;48.13;34.05;66.43;;
66399;Laerm;54877;51.504;3.894;2023-07-20T10:24:01;49.10;34.08;66.75;;
66399;Laerm;54877;51.504;3.894;2023-07-20T10:26:26;37.64;34.30;53.28;;
66399;Laerm;54877;51.504;3.894;2023-07-20T10:28:52;52.79;34.41;70.24;;
66399;Laerm;54877;51.504;3.894;2023-07-20T10:31:19;50.25;35.43;67.08;;
66399;Laerm;54877;51.504;3.894;2023-07-20T10:33:45;37.93;34.35;58.06;;
66399;Laerm;54877;51.504;3.894;2023-07-20T10:36:11;52.07;34.72;68.75;;
66399;Laerm;54877;51.504;3.894;2023-07-20T10:41:33;37.63;34.31;46.91;;
66399;Laerm;54877;51.504;3.894;2023-07-20T10:44:03;39.08;34.33;54.25;;
66399;Laerm;54877;51.504;3.894;2023-07-20T10:49:06;36.27;33.88;50.85;;
66399;Laerm;54877;51.504;3.894;2023-07-20T10:51:43;36.90;33.94;60.33;;
66399;Laerm;54877;51.504;3.894;2023-07-20T10:54:33;40.24;34.19;55.26;;
66399;Laerm;54877;51.504;3.894;2023-07-20T10:57:24;47.39;34.54;64.04;;
66399;Laerm;54877;51.504;3.894;2023-07-20T10:59:50;43.90;34.19;66.34;;
66399;Laerm;54877;51.504;3.894;2023-07-20T11:02:18;49.56;34.17;68.22;;
66399;Laerm;54877;51.504;3.894;2023-07-20T11:04:46;51.19;34.38;71.29;;
66399;Laerm;54877;51.504;3.894;2023-07-20T11:07:16;38.81;34.42;54.50;;
66399;Laerm;54877;51.504;3.894;2023-07-20T11:09:42;38.21;34.50;55.62;;
66399;Laerm;54877;51.504;3.894;2023-07-20T11:12:26;37.20;33.90;61.98;;
66399;Laerm;54877;51.504;3.894;2023-07-20T11:14:56;48.85;34.95;76.55;;
66399;Laerm;54877;51.504;3.894;2023-07-20T11:17:30;37.83;33.93;55.43;;
66399;Laerm;54877;51.504;3.894;2023-07-20T11:19:56;35.43;33.70;45.05;;
66399;Laerm;54877;51.504;3.894;2023-07-20T11:22:22;41.05;34.27;63.69;;
66399;Laerm;54877;51.504;3.894;2023-07-20T11:24:48;49.87;34.21;69.48;;
66399;Laerm;54877;51.504;3.894;2023-07-20T11:27:14;46.67;34.10;67.20;;
66399;Laerm;54877;51.504;3.894;2023-07-20T11:29:40;49.61;34.19;69.30;;
66399;Laerm;54877;51.504;3.894;2023-07-20T11:32:05;39.37;34.10;60.76;;
66399;Laerm;54877;51.504;3.894;2023-07-20T11:34:32;48.36;34.25;66.91;;
66399;Laerm;54877;51.504;3.894;2023-07-20T11:36:58;36.97;34.28;50.03;;
66399;Laerm;54877;51.504;3.894;2023-07-20T11:39:24;41.25;34.14;56.98;;
66399;Laerm;54877;51.504;3.894;2023-07-20T11:41:59;50.77;34.34;68.16;;
66399;Laerm;54877;51.504;3.894;2023-07-20T11:44:28;38.37;34.17;52.72;;
66399;Laerm;54877;51.504;3.894;2023-07-20T11:47:05;40.38;34.03;65.11;;
66399;Laerm;54877;51.504;3.894;2023-07-20T11:49:43;40.21;34.01;64.03;;
66399;Laerm;54877;51.504;3.894;2023-07-20T11:52:10;48.04;34.12;69.16;;
66399;Laerm;54877;51.504;3.894;2023-07-20T11:54:38;46.16;34.14;64.78;;
66399;Laerm;54877;51.504;3.894;2023-07-20T11:57:04;36.08;33.84;46.10;;
66399;Laerm;54877;51.504;3.894;2023-07-20T11:59:33;37.29;33.96;53.92;;
66399;Laerm;54877;51.504;3.894;2023-07-20T12:02:02;36.96;34.00;53.28;;
66399;Laerm;54877;51.504;3.894;2023-07-20T12:04:28;53.62;34.17;69.89;;
66399;Laerm;54877;51.504;3.894;2023-07-20T12:06:54;39.06;34.11;54.41;;
66399;Laerm;54877;51.504;3.894;2023-07-20T12:09:20;39.02;34.01;63.81;;
66399;Laerm;54877;51.504;3.894;2023-07-20T12:11:49;42.31;34.31;62.40;;
66399;Laerm;54877;51.504;3.894;2023-07-20T12:14:14;46.07;34.16;62.92;;
66399;Laerm;54877;51.504;3.894;2023-07-20T12:16:40;40.10;33.87;66.46;;
66399;Laerm;54877;51.504;3.894;2023-07-20T12:19:07;53.86;34.05;70.75;;
66399;Laerm;54877;51.504;3.894;2023-07-20T12:21:37;36.91;34.02;54.63;;
66399;Laerm;54877;51.504;3.894;2023-07-20T12:24:04;40.03;34.38;55.60;;
66399;Laerm;54877;51.504;3.894;2023-07-20T12:26:30;41.08;35.30;49.35;;
66399;Laerm;54877;51.504;3.894;2023-07-20T12:28:56;46.05;35.19;63.14;;
66399;Laerm;54877;51.504;3.894;2023-07-20T12:31:22;48.41;34.86;66.36;;
66399;Laerm;54877;51.504;3.894;2023-07-20T12:33:50;38.56;34.71;55.90;;
66399;Laerm;54877;51.504;3.894;2023-07-20T12:36:15;38.69;34.36;52.50;;
66399;Laerm;54877;51.504;3.894;2023-07-20T12:38:41;48.60;34.17;68.64;;
66399;Laerm;54877;51.504;3.894;2023-07-20T12:41:07;47.53;33.92;68.67;;
66399;Laerm;54877;51.504;3.894;2023-07-20T12:43:33;40.22;34.28;66.24;;
66399;Laerm;54877;51.504;3.894;2023-07-20T12:45:58;52.10;34.23;74.36;;
66399;Laerm;54877;51.504;3.894;2023-07-20T12:48:24;37.56;34.10;53.72;;
66399;Laerm;54877;51.504;3.894;2023-07-20T12:50:50;41.80;34.18;64.33;;
66399;Laerm;54877;51.504;3.894;2023-07-20T12:53:15;36.59;34.00;56.41;;
66399;Laerm;54877;51.504;3.894;2023-07-20T12:55:41;48.37;34.35;68.82;;
66399;Laerm;54877;51.504;3.894;2023-07-20T12:58:07;51.90;34.11;70.28;;
66399;Laerm;54877;51.504;3.894;2023-07-20T13:00:33;37.54;34.35;50.58;;
66399;Laerm;54877;51.504;3.894;2023-07-20T13:02:58;45.62;34.10;64.74;;
66399;Laerm;54877;51.504;3.894;2023-07-20T13:05:24;46.45;33.79;63.93;;
66399;Laerm;54877;51.504;3.894;2023-07-20T13:07:49;45.94;34.06;69.08;;
66399;Laerm;54877;51.504;3.894;2023-07-20T13:10:15;49.94;34.10;71.48;;
66399;Laerm;54877;51.504;3.894;2023-07-20T13:12:40;44.07;33.97;61.28;;
66399;Laerm;54877;51.504;3.894;2023-07-20T13:15:07;42.34;34.08;65.81;;
66399;Laerm;54877;51.504;3.894;2023-07-20T13:17:34;48.88;33.76;68.67;;
66399;Laerm;54877;51.504;3.894;2023-07-20T13:20:00;37.76;33.87;51.85;;
66399;Laerm;54877;51.504;3.894;2023-07-20T13:22:25;36.46;33.84;50.81;;
66399;Laerm;54877;51.504;3.894;2023-07-20T13:24:51;36.76;33.93;53.77;;
66399;Laerm;54877;51.504;3.894;2023-07-20T13:27:17;47.52;33.94;66.98;;
66399;Laerm;54877;51.504;3.894;2023-07-20T13:29:43;36.82;33.62;49.50;;
66399;Laerm;54877;51.504;3.894;2023-07-20T13:32:09;46.02;33.89;68.70;;
66399;Laerm;54877;51.504;3.894;2023-07-20T13:34:34;44.55;33.92;65.54;;
66399;Laerm;54877;51.504;3.894;2023-07-20T13:37:00;51.77;33.97;69.75;;
66399;Laerm;54877;51.504;3.894;2023-07-20T13:39:26;53.27;33.94;75.41;;
66399;Laerm;54877;51.504;3.894;2023-07-20T13:41:54;50.83;34.22;66.30;;
66399;Laerm;54877;51.504;3.894;2023-07-20T13:44:20;36.67;33.96;54.25;;
66399;Laerm;54877;51.504;3.894;2023-07-20T13:46:46;47.32;33.80;65.40;;
66399;Laerm;54877;51.504;3.894;2023-07-20T13:49:12;38.56;34.14;52.91;;
66399;Laerm;54877;51.504;3.894;2023-07-20T13:51:37;48.55;33.83;66.99;;
66399;Laerm;54877;51.504;3.894;2023-07-20T13:54:02;39.19;34.13;56.12;;
66399;Laerm;54877;51.504;3.894;2023-07-20T13:56:28;55.70;33.84;72.51;;
66399;Laerm;54877;51.504;3.894;2023-07-20T13:58:53;36.43;34.07;57.55;;
66399;Laerm;54877;51.504;3.894;2023-07-20T14:01:18;37.24;33.98;53.59;;
66399;Laerm;54877;51.504;3.894;2023-07-20T14:03:44;38.01;33.97;52.65;;
66399;Laerm;54877;51.504;3.894;2023-07-20T14:06:09;48.82;33.78;67.28;;
66399;Laerm;54877;51.504;3.894;2023-07-20T14:08:36;37.09;33.70;47.30;;
66399;Laerm;54877;51.504;3.894;2023-07-20T14:11:02;37.51;34.15;57.45;;
66399;Laerm;54877;51.504;3.894;2023-07-20T14:13:27;36.82;34.07;54.23;;
66399;Laerm;54877;51.504;3.894;2023-07-20T14:15:53;49.88;34.21;71.16;;
66399;Laerm;54877;51.504;3.894;2023-07-20T14:18:18;45.62;34.02;65.21;;
66399;Laerm;54877;51.504;3.894;2023-07-20T14:20:43;52.80;34.32;70.70;;
66399;Laerm;54877;51.504;3.894;2023-07-20T14:23:09;46.03;34.15;64.39;;
66399;Laerm;54877;51.504;3.894;2023-07-20T14:25:35;53.80;34.47;72.95;;
66399;Laerm;54877;51.504;3.894;2023-07-20T14:28:01;50.68;34.13;68.33;;
66399;Laerm;54877;51.504;3.894;2023-07-20T14:30:26;51.33;34.29;70.38;;
66399;Laerm;54877;51.504;3.894;2023-07-20T14:32:51;38.92;34.21;51.75;;
66399;Laerm;54877;51.504;3.894;2023-07-20T14:35:17;48.15;33.96;66.43;;
66399;Laerm;54877;51.504;3.894;2023-07-20T14:37:42;38.81;34.19;57.22;;
66399;Laerm;54877;51.504;3.894;2023-07-20T14:40:08;47.91;34.48;66.57;;
66399;Laerm;54877;51.504;3.894;2023-07-20T14:42:33;51.11;34.06;71.24;;
66399;Laerm;54877;51.504;3.894;2023-07-20T14:44:59;47.63;34.27;65.27;;
66399;Laerm;54877;51.504;3.894;2023-07-20T14:47:24;45.09;33.87;64.10;;
66399;Laerm;54877;51.504;3.894;2023-07-20T14:49:50;39.65;33.93;53.93;;
66399;Laerm;54877;51.504;3.894;2023-07-20T14:52:15;38.29;33.93;57.68;;
66399;Laerm;54877;51.504;3.894;2023-07-20T14:54:41;45.21;33.98;64.86;;
66399;Laerm;54877;51.504;3.894;2023-07-20T14:57:06;44.23;34.23;62.84;;
66399;Laerm;54877;51.504;3.894;2023-07-20T14:59:39;54.23;34.11;72.59;;
66399;Laerm;54877;51.504;3.894;2023-07-20T15:02:05;44.74;34.31;67.04;;
66399;Laerm;54877;51.504;3.894;2023-07-20T15:04:31;46.20;33.91;63.19;;
66399;Laerm;54877;51.504;3.894;2023-07-20T15:06:56;46.73;34.21;65.06;;
66399;Laerm;54877;51.504;3.894;2023-07-20T15:09:22;48.45;34.58;63.97;;
66399;Laerm;54877;51.504;3.894;2023-07-20T15:11:47;49.56;34.30;66.02;;
66399;Laerm;54877;51.504;3.894;2023-07-20T15:14:13;43.96;33.99;62.41;;
66399;Laerm;54877;51.504;3.894;2023-07-20T15:16:38;49.64;33.99;68.89;;
66399;Laerm;54877;51.504;3.894;2023-07-20T15:19:04;42.35;34.15;70.22;;
66399;Laerm;54877;51.504;3.894;2023-07-20T15:21:29;50.77;34.13;72.46;;
66399;Laerm;54877;51.504;3.894;2023-07-20T15:23:57;44.22;33.88;69.62;;
66399;Laerm;54877;51.504;3.894;2023-07-20T15:26:23;52.06;34.16;69.10;;
66399;Laerm;54877;51.504;3.894;2023-07-20T15:28:49;54.97;34.01;74.36;;
66399;Laerm;54877;51.504;3.894;2023-07-20T15:31:14;47.94;33.82;69.28;;
66399;Laerm;54877;51.504;3.894;2023-07-20T15:33:39;53.11;33.96;70.95;;
66399;Laerm;54877;51.504;3.894;2023-07-20T15:36:05;44.83;33.99;59.98;;
66399;Laerm;54877;51.504;3.894;2023-07-20T15:38:31;38.53;33.39;60.55;;
66399;Laerm;54877;51.504;3.894;2023-07-20T15:40:57;38.12;33.41;53.28;;
66399;Laerm;54877;51.504;3.894;2023-07-20T15:43:25;36.52;33.63;48.95;;
66399;Laerm;54877;51.504;3.894;2023-07-20T15:46:00;36.34;33.53;48.47;;
66399;Laerm;54877;51.504;3.894;2023-07-20T15:48:26;36.98;33.73;53.01;;
66399;Laerm;54877;51.504;3.894;2023-07-20T15:50:51;39.83;33.86;59.41;;
66399;Laerm;54877;51.504;3.894;2023-07-20T15:53:16;41.52;33.82;74.51;;
66399;Laerm;54877;51.504;3.894;2023-07-20T15:55:42;59.90;34.22;81.32;;
66399;Laerm;54877;51.504;3.894;2023-07-20T15:58:07;36.79;33.84;49.09;;
66399;Laerm;54877;51.504;3.894;2023-07-20T16:00:33;36.87;33.83;49.79;;
66399;Laerm;54877;51.504;3.894;2023-07-20T16:02:58;39.99;34.11;54.20;;
66399;Laerm;54877;51.504;3.894;2023-07-20T16:05:24;55.82;33.96;71.84;;
66399;Laerm;54877;51.504;3.894;2023-07-20T16:07:49;56.01;34.20;72.42;;
66399;Laerm;54877;51.504;3.894;2023-07-20T16:10:14;50.25;34.13;68.26;;
66399;Laerm;54877;51.504;3.894;2023-07-20T16:12:40;46.60;33.95;65.43;;
66399;Laerm;54877;51.504;3.894;2023-07-20T16:15:06;49.88;33.96;67.94;;
66399;Laerm;54877;51.504;3.894;2023-07-20T16:17:31;47.29;34.05;65.14;;
66399;Laerm;54877;51.504;3.894;2023-07-20T16:19:57;38.72;33.86;59.55;;
66399;Laerm;54877;51.504;3.894;2023-07-20T16:22:23;35.61;33.89;45.49;;
66399;Laerm;54877;51.504;3.894;2023-07-20T16:24:49;37.33;33.62;57.45;;
66399;Laerm;54877;51.504;3.894;2023-07-20T16:27:14;37.10;34.15;55.73;;
66399;Laerm;54877;51.504;3.894;2023-07-20T16:29:40;40.15;33.97;66.32;;
66399;Laerm;54877;51.504;3.894;2023-07-20T16:32:05;52.57;34.44;72.64;;
66399;Laerm;54877;51.504;3.894;2023-07-20T16:34:31;48.86;34.28;75.49;;
66399;Laerm;54877;51.504;3.894;2023-07-20T16:36:56;52.84;34.07;71.84;;
66399;Laerm;54877;51.504;3.894;2023-07-20T16:39:21;49.69;34.13;67.70;;
66399;Laerm;54877;51.504;3.894;2023-07-20T16:41:47;37.31;34.12;53.15;;
66399;Laerm;54877;51.504;3.894;2023-07-20T16:44:12;36.95;34.12;46.10;;
66399;Laerm;54877;51.504;3.894;2023-07-20T16:46:39;52.34;34.17;69.17;;
66399;Laerm;54877;51.504;3.894;2023-07-20T16:49:04;39.34;34.22;55.73;;
66399;Laerm;54877;51.504;3.894;2023-07-20T16:51:31;36.17;33.86;50.11;;
66399;Laerm;54877;51.504;3.894;2023-07-20T16:53:57;49.00;34.30;67.97;;
66399;Laerm;54877;51.504;3.894;2023-07-20T16:56:23;40.50;34.24;54.36;;
66399;Laerm;54877;51.504;3.894;2023-07-20T16:58:48;39.51;34.38;55.32;;
66399;Laerm;54877;51.504;3.894;2023-07-20T17:01:13;37.01;34.13;54.35;;
66399;Laerm;54877;51.504;3.894;2023-07-20T17:03:40;44.64;34.00;60.02;;
66399;Laerm;54877;51.504;3.894;2023-07-20T17:06:05;36.34;34.16;56.65;;
66399;Laerm;54877;51.504;3.894;2023-07-20T17:08:32;49.75;34.42;67.40;;
66399;Laerm;54877;51.504;3.894;2023-07-20T17:11:00;51.72;34.47;72.34;;
66399;Laerm;54877;51.504;3.894;2023-07-20T17:13:25;39.55;34.34;56.99;;
66399;Laerm;54877;51.504;3.894;2023-07-20T17:15:51;37.45;34.13;54.85;;
66399;Laerm;54877;51.504;3.894;2023-07-20T17:18:16;47.33;34.59;66.39;;
66399;Laerm;54877;51.504;3.894;2023-07-20T17:20:43;37.85;34.23;50.82;;
66399;Laerm;54877;51.504;3.894;2023-07-20T17:23:08;36.31;34.35;43.82;;
66399;Laerm;54877;51.504;3.894;2023-07-20T17:25:34;47.23;34.23;66.75;;
66399;Laerm;54877;51.504;3.894;2023-07-20T17:28:00;39.35;34.57;51.69;;
66399;Laerm;54877;51.504;3.894;2023-07-20T17:30:25;41.51;34.39;69.51;;
66399;Laerm;54877;51.504;3.894;2023-07-20T17:32:51;39.41;34.58;58.37;;
66399;Laerm;54877;51.504;3.894;2023-07-20T17:35:17;36.67;34.02;43.88;;
66399;Laerm;54877;51.504;3.894;2023-07-20T17:37:43;35.72;34.13;41.34;;
66399;Laerm;54877;51.504;3.894;2023-07-20T17:40:09;45.32;33.94;61.14;;
66399;Laerm;54877;51.504;3.894;2023-07-20T17:42:36;35.75;34.08;48.22;;
66399;Laerm;54877;51.504;3.894;2023-07-20T17:45:01;36.84;34.14;52.70;;
66399;Laerm;54877;51.504;3.894;2023-07-20T17:47:27;35.96;33.86;50.78;;